Time;durP1;ratioP1;P1;durP2;ratioP2;P2;SDS_P1;SDS_P2;PMS_P1;PMS_P2;Temp;Humidity;BMP_temperature;BMP_pressure;BME280_temperature;BME280_humidity;BME280_pressure;Samples;Min_cycle;Max_cycle;Signal;HPM_P1;HPM_P2
2022/09/27 00:02:48;;;;;;;1.17;0.40;;;14.00;96.00;;;;;;10225246;28;20027;-61
2022/09/27 00:07:48;;;;;;;0.63;0.15;;;13.90;95.90;;;;;;10241789;28;20039;-62
2022/09/27 00:12:50;;;;;;;1.20;0.50;;;13.90;95.90;;;;;;10243084;28;20046;-62
2022/09/27 00:17:51;;;;;;;4.25;0.57;;;13.90;95.90;;;;;;10240752;28;20031;-63
2022/09/27 00:22:52;;;;;;;0.88;0.30;;;13.90;95.90;;;;;;10237404;28;20058;-61
2022/09/27 00:27:52;;;;;;;3.25;0.38;;;13.90;95.90;;;;;;10239189;28;20027;-64
2022/09/27 00:32:53;;;;;;;0.50;0.30;;;13.90;95.90;;;;;;10238792;28;20532;-62
2022/09/27 00:37:54;;;;;;;0.60;0.30;;;13.90;95.90;;;;;;10235742;28;20507;-72
2022/09/27 00:42:55;;;;;;;1.17;0.40;;;13.90;95.90;;;;;;10237385;28;20031;-62
2022/09/27 00:48:03;;;;;;;1.85;0.30;;;13.90;95.90;;;;;;10236166;28;20086;-61
2022/09/27 00:53:32;;;;;;;0.98;0.28;;;13.90;95.90;;;;;;10232969;28;20554;-61
2022/09/27 00:58:38;;;;;;;0.93;0.30;;;13.80;95.80;;;;;;10237678;28;20074;-62
2022/09/27 01:03:45;;;;;;;0.88;0.30;;;13.80;95.80;;;;;;10239936;28;20028;-63
2022/09/27 01:08:46;;;;;;;1.42;0.30;;;13.80;96.10;;;;;;10238793;28;20038;-62
2022/09/27 01:14:11;;;;;;;0.30;0.20;;;13.80;95.80;;;;;;10241521;28;20066;-62
2022/09/27 01:19:30;;;;;;;0.50;0.20;;;13.80;95.80;;;;;;10235794;28;20131;-62
2022/09/27 01:24:57;;;;;;;0.57;0.40;;;13.80;95.80;;;;;;10234855;28;20087;-61
2022/09/27 01:30:21;;;;;;;0.30;0.20;;;13.80;95.80;;;;;;10232797;28;20119;-62
2022/09/27 01:35:45;;;;;;;0.68;0.20;;;13.80;95.80;;;;;;10232295;28;20039;-62
2022/09/27 01:40:51;;;;;;;1.13;0.30;;;13.80;96.10;;;;;;10237148;28;20507;-62
2022/09/27 01:46:01;;;;;;;1.80;0.20;;;13.70;95.80;;;;;;10237869;28;20031;-62
2022/09/27 01:51:14;;;;;;;0.60;0.20;;;13.70;95.80;;;;;;10236398;28;20154;-63
2022/09/27 01:56:30;;;;;;;1.60;0.25;;;13.70;95.80;;;;;;10234197;28;20477;-61
2022/09/27 02:01:34;;;;;;;0.60;0.30;;;13.70;96.00;;;;;;10236526;28;21107;-68
2022/09/27 02:06:45;;;;;;;1.33;0.10;;;13.70;95.70;;;;;;10237987;28;20027;-61
2022/09/27 02:11:51;;;;;;;0.40;0.35;;;13.70;95.70;;;;;;10232628;28;20358;-61
2022/09/27 02:16:57;;;;;;;0.30;0.20;;;13.70;95.80;;;;;;10233570;28;20082;-62
2022/09/27 02:22:16;;;;;;;1.73;0.40;;;13.70;95.70;;;;;;10234095;28;20046;-62
2022/09/27 02:27:28;;;;;;;1.25;0.38;;;13.70;95.70;;;;;;10235589;28;20487;-61
2022/09/27 02:32:29;;;;;;;1.02;0.20;;;13.60;95.70;;;;;;10230938;28;20575;-62
2022/09/27 02:37:30;;;;;;;0.43;0.10;;;13.60;95.70;;;;;;10233210;28;20039;-62
2022/09/27 02:42:32;;;;;;;0.52;0.17;;;13.60;95.70;;;;;;10232667;28;20110;-61
2022/09/27 02:47:34;;;;;;;1.40;0.20;;;13.60;95.70;;;;;;10239120;28;20434;-62
2022/09/27 02:52:43;;;;;;;0.40;0.25;;;13.60;95.70;;;;;;10232699;28;20027;-61
2022/09/27 02:58:03;;;;;;;1.95;0.20;;;13.60;95.60;;;;;;10229849;28;20065;-65
2022/09/27 03:03:07;;;;;;;1.38;0.20;;;13.60;95.60;;;;;;10235483;28;20035;-61
2022/09/27 03:08:08;;;;;;;0.52;0.20;;;13.60;95.60;;;;;;10233015;28;20019;-61
2022/09/27 03:13:09;;;;;;;1.75;0.20;;;13.60;95.60;;;;;;10214720;28;20042;-61
2022/09/27 03:18:10;;;;;;;0.50;0.20;;;13.60;95.60;;;;;;10233342;28;20770;-61
2022/09/27 03:23:11;;;;;;;0.63;0.30;;;13.60;95.60;;;;;;10229452;28;20659;-62
2022/09/27 03:28:12;;;;;;;0.45;0.20;;;13.60;95.60;;;;;;10234813;28;20028;-62
2022/09/27 03:33:13;;;;;;;1.50;0.10;;;13.50;95.50;;;;;;10238142;28;20484;-62
2022/09/27 03:38:14;;;;;;;0.57;0.10;;;13.50;95.50;;;;;;10231657;28;20118;-62
2022/09/27 03:43:14;;;;;;;0.30;0.20;;;13.50;95.50;;;;;;10235961;28;20043;-64
2022/09/27 03:48:15;;;;;;;0.25;0.10;;;13.50;95.50;;;;;;10233111;28;20118;-61
2022/09/27 03:53:16;;;;;;;0.43;0.10;;;13.50;95.50;;;;;;10232846;28;20035;-68
2022/09/27 03:58:17;;;;;;;0.30;0.10;;;13.50;95.50;;;;;;10229223;28;20042;-61
2022/09/27 04:03:18;;;;;;;0.17;0.10;;;13.50;95.50;;;;;;10233166;28;20035;-63
2022/09/27 04:08:20;;;;;;;1.10;0.20;;;13.50;95.50;;;;;;10234591;28;20740;-65
2022/09/27 04:13:22;;;;;;;0.28;0.10;;;13.50;95.50;;;;;;10238506;28;20044;-62
2022/09/27 04:18:23;;;;;;;1.27;0.20;;;13.40;95.50;;;;;;10241357;28;20031;-61
2022/09/27 04:23:24;;;;;;;2.05;0.10;;;13.40;95.40;;;;;;10237884;28;20055;-61
2022/09/27 04:28:25;;;;;;;0.30;0.10;;;13.40;95.40;;;;;;10235433;28;20027;-61
2022/09/27 04:33:25;;;;;;;0.73;0.30;;;13.40;95.40;;;;;;10239026;28;20320;-62
2022/09/27 04:38:26;;;;;;;0.85;0.28;;;13.40;95.40;;;;;;10241475;28;20031;-61
2022/09/27 04:43:27;;;;;;;1.92;0.10;;;13.40;95.40;;;;;;10242771;28;20034;-61
2022/09/27 04:48:28;;;;;;;0.20;0.10;;;13.30;95.40;;;;;;10240663;28;20481;-62
2022/09/27 04:53:29;;;;;;;1.52;0.50;;;13.30;95.40;;;;;;10235452;28;20050;-62
2022/09/27 04:58:32;;;;;;;0.75;0.20;;;13.30;95.40;;;;;;10239624;28;20036;-62
2022/09/27 05:03:33;;;;;;;0.68;0.15;;;13.30;95.30;;;;;;10239819;28;20510;-67
2022/09/27 05:08:34;;;;;;;1.27;0.10;;;13.30;95.30;;;;;;10238952;28;20023;-61
2022/09/27 05:13:35;;;;;;;0.47;0.25;;;13.10;95.30;;;;;;10236682;28;20059;-61
2022/09/27 05:18:35;;;;;;;1.02;0.10;;;13.30;95.30;;;;;;10243027;28;20454;-61
2022/09/27 05:23:36;;;;;;;0.25;0.10;;;13.20;95.30;;;;;;10251071;28;20202;-61
2022/09/27 05:28:37;;;;;;;0.45;0.10;;;13.30;95.30;;;;;;10255006;28;20106;-61
2022/09/27 05:33:38;;;;;;;0.55;0.20;;;13.30;95.30;;;;;;10249332;28;20118;-62
2022/09/27 05:38:38;;;;;;;0.68;0.20;;;13.20;95.20;;;;;;10243014;28;20163;-61
2022/09/27 05:43:40;;;;;;;2.28;0.57;;;13.20;95.20;;;;;;10249543;28;20445;-61
2022/09/27 05:48:40;;;;;;;1.75;0.22;;;13.20;95.20;;;;;;10248400;28;20691;-66
2022/09/27 05:53:41;;;;;;;1.67;0.40;;;13.20;95.20;;;;;;10250035;28;20058;-62
2022/09/27 05:58:42;;;;;;;0.90;0.30;;;13.10;95.20;;;;;;10244414;28;20115;-62
2022/09/27 06:03:45;;;;;;;0.50;0.30;;;13.10;95.10;;;;;;10171850;28;20038;-61
2022/09/27 06:08:46;;;;;;;2.40;0.40;;;13.10;95.10;;;;;;10167504;28;20360;-62
2022/09/27 06:13:46;;;;;;;1.20;0.40;;;13.10;95.10;;;;;;10175042;28;21105;-73
2022/09/27 06:18:47;;;;;;;0.57;0.40;;;13.10;95.10;;;;;;10169992;28;20231;-62
2022/09/27 06:23:48;;;;;;;0.77;0.20;;;13.20;95.10;;;;;;10164770;28;20121;-64
2022/09/27 06:28:50;;;;;;;0.70;0.30;;;13.20;95.10;;;;;;10172413;28;20062;-62
2022/09/27 06:33:50;;;;;;;1.75;0.30;;;13.10;95.00;;;;;;10163008;28;20263;-62
2022/09/27 06:38:51;;;;;;;0.65;0.40;;;13.20;95.00;;;;;;10171145;28;20019;-62
2022/09/27 06:43:52;;;;;;;1.30;0.32;;;13.20;95.00;;;;;;10166898;28;20621;-70
2022/09/27 06:48:55;;;;;;;0.90;0.50;;;13.20;95.00;;;;;;10180218;28;20027;-62
2022/09/27 06:53:56;;;;;;;2.83;0.25;;;13.20;94.90;;;;;;10170411;28;20341;-64
2022/09/27 07:04:17;;;;;;;0.43;0.20;;;13.20;94.80;;;;;;10162473;28;20562;-61
2022/09/27 07:09:18;;;;;;;0.45;0.20;;;13.30;94.80;;;;;;10168001;28;20027;-64
2022/09/27 07:14:19;;;;;;;0.35;0.20;;;13.30;94.80;;;;;;10179486;28;20047;-62
2022/09/27 07:19:20;;;;;;;1.45;0.38;;;13.30;94.70;;;;;;10150629;28;20054;-61
2022/09/27 07:24:20;;;;;;;2.33;0.57;;;13.40;94.70;;;;;;10165220;28;20600;-63
2022/09/27 07:29:21;;;;;;;0.65;0.28;;;13.40;94.70;;;;;;10172545;28;20079;-72
2022/09/27 07:34:22;;;;;;;0.40;0.20;;;13.40;94.60;;;;;;10173466;28;20047;-62
2022/09/27 07:39:23;;;;;;;0.35;0.20;;;13.50;94.60;;;;;;10165171;28;20031;-62
2022/09/27 07:44:24;;;;;;;0.25;0.10;;;13.50;94.60;;;;;;10167691;28;20042;-62
2022/09/27 07:49:24;;;;;;;0.28;0.10;;;13.60;94.50;;;;;;10176379;28;20101;-61
2022/09/27 07:54:25;;;;;;;0.25;0.10;;;13.60;94.50;;;;;;10169202;28;20039;-62
2022/09/27 07:59:26;;;;;;;1.75;0.38;;;13.70;94.50;;;;;;10154742;28;21058;-64
2022/09/27 08:04:27;;;;;;;0.60;0.30;;;13.70;94.50;;;;;;10170943;28;20035;-62
2022/09/27 08:09:28;;;;;;;0.20;0.10;;;13.70;94.40;;;;;;10170747;28;20082;-62
2022/09/27 08:14:29;;;;;;;0.70;0.20;;;13.70;94.40;;;;;;10169161;28;20119;-62
2022/09/27 08:19:30;;;;;;;0.47;0.20;;;13.70;94.40;;;;;;10176906;28;20514;-62
2022/09/27 08:24:31;;;;;;;0.50;0.20;;;13.70;94.40;;;;;;10176337;28;20035;-62
2022/09/27 08:29:33;;;;;;;0.95;0.25;;;13.70;94.40;;;;;;10157198;28;20417;-63
2022/09/27 08:34:34;;;;;;;0.20;0.10;;;13.70;94.40;;;;;;10157484;28;20047;-62
2022/09/27 08:39:35;;;;;;;0.38;0.25;;;13.70;94.40;;;;;;10159423;28;20758;-62
2022/09/27 08:45:03;;;;;;;2.15;0.20;;;13.80;94.50;;;;;;10156665;28;20041;-62
2022/09/27 08:50:39;;;;;;;0.93;0.20;;;13.80;94.40;;;;;;10156843;28;20146;-62
2022/09/27 08:55:47;;;;;;;0.60;0.20;;;13.80;94.40;;;;;;10160852;28;20563;-62
2022/09/27 09:00:50;;;;;;;1.15;0.60;;;13.80;94.30;;;;;;10156009;28;20401;-61
2022/09/27 09:05:59;;;;;;;0.30;0.20;;;13.80;94.40;;;;;;10153567;28;20926;-61
2022/09/27 09:16:42;;;;;;;0.20;0.20;;;13.90;94.40;;;;;;10159493;28;20535;-62
2022/09/27 09:21:49;;;;;;;0.75;0.20;;;13.90;94.40;;;;;;10163305;28;20043;-62
2022/09/27 09:26:59;;;;;;;0.45;0.30;;;13.90;94.40;;;;;;10156186;28;20086;-62
2022/09/27 09:32:27;;;;;;;0.80;0.15;;;13.90;94.40;;;;;;10160749;28;20031;-62
2022/09/27 09:37:38;;;;;;;0.52;0.20;;;13.90;94.40;;;;;;10163003;28;20182;-73
2022/09/27 09:42:45;;;;;;;0.22;0.10;;;13.90;94.40;;;;;;10158102;28;20039;-62
2022/09/27 09:47:54;;;;;;;0.30;0.20;;;13.90;94.40;;;;;;10154853;28;20050;-67
2022/09/27 09:53:34;;;;;;;0.63;0.13;;;13.90;94.40;;;;;;10154894;28;20157;-66
2022/09/27 09:58:48;;;;;;;0.75;0.20;;;13.90;94.40;;;;;;10129496;28;20046;-62
2022/09/27 10:03:49;;;;;;;0.35;0.10;;;14.00;94.40;;;;;;10147744;28;20031;-61
2022/09/27 10:08:53;;;;;;;0.40;0.20;;;14.00;94.30;;;;;;10134380;28;20031;-62
2022/09/27 10:13:57;;;;;;;0.25;0.10;;;14.00;94.30;;;;;;10155277;28;20154;-61
2022/09/27 10:19:02;;;;;;;0.63;0.20;;;14.10;94.30;;;;;;10153838;28;20027;-64
2022/09/27 10:24:07;;;;;;;0.77;0.30;;;14.10;94.30;;;;;;10151281;28;20035;-62
2022/09/27 10:29:43;;;;;;;0.70;0.20;;;14.10;94.30;;;;;;10146532;28;20974;-62
2022/09/27 10:34:43;;;;;;;2.28;0.43;;;14.10;94.30;;;;;;10146385;28;20866;-61
2022/09/27 10:39:46;;;;;;;0.30;0.30;;;14.10;94.30;;;;;;10154331;28;20062;-61
2022/09/27 10:44:47;;;;;;;0.50;0.20;;;14.00;94.40;;;;;;10145734;28;20034;-66
2022/09/27 10:49:53;;;;;;;0.65;0.20;;;14.00;94.50;;;;;;10153213;28;20035;-62
2022/09/27 10:55:00;;;;;;;0.55;0.28;;;14.00;94.50;;;;;;10152890;28;20413;-62
2022/09/27 11:00:18;;;;;;;3.08;0.20;;;14.00;94.50;;;;;;10147337;28;20027;-62
2022/09/27 11:05:26;;;;;;;0.50;0.20;;;14.00;94.50;;;;;;10151059;28;20042;-62
2022/09/27 11:10:30;;;;;;;0.20;0.10;;;14.00;94.50;;;;;;10152900;28;20038;-64
2022/09/27 11:15:44;;;;;;;0.32;0.13;;;14.10;94.50;;;;;;10135808;28;20050;-62
2022/09/27 11:20:52;;;;;;;0.43;0.10;;;14.10;94.50;;;;;;10153369;28;20914;-62
2022/09/27 11:26:24;;;;;;;0.47;0.10;;;14.10;94.50;;;;;;10153461;28;20145;-62
2022/09/27 11:31:44;;;;;;;0.95;0.68;;;14.20;94.50;;;;;;10148105;28;20042;-62
2022/09/27 11:36:55;;;;;;;0.20;0.20;;;14.20;94.40;;;;;;10157199;28;21003;-62
2022/09/27 11:42:43;;;;;;;1.85;0.10;;;14.20;94.40;;;;;;10153049;28;20035;-61
2022/09/27 11:47:49;;;;;;;0.20;0.13;;;14.30;94.40;;;;;;10145450;28;20043;-62
2022/09/27 11:53:04;;;;;;;0.63;0.40;;;14.30;94.40;;;;;;10157221;28;20052;-62
2022/09/27 11:58:39;;;;;;;1.00;0.93;;;14.30;94.30;;;;;;10153200;28;20028;-63
2022/09/27 12:03:46;;;;;;;0.57;0.22;;;14.40;94.30;;;;;;10147467;28;20040;-63
2022/09/27 12:09:18;;;;;;;4.63;0.32;;;14.40;94.30;;;;;;10152352;28;20235;-63
2022/09/27 12:14:33;;;;;;;0.20;0.20;;;14.40;94.30;;;;;;10145369;28;20055;-62
2022/09/27 12:19:38;;;;;;;0.25;0.17;;;14.40;94.20;;;;;;10151788;28;20043;-62
2022/09/27 12:24:39;;;;;;;0.65;0.17;;;14.40;94.20;;;;;;10154840;28;20386;-64
2022/09/27 12:29:42;;;;;;;0.73;0.20;;;14.50;94.30;;;;;;10157195;28;20213;-63
2022/09/27 12:34:54;;;;;;;0.52;0.20;;;14.50;94.30;;;;;;10155850;28;20102;-63
2022/09/27 12:40:14;;;;;;;0.20;0.15;;;14.40;94.30;;;;;;10160142;28;20422;-62
2022/09/27 12:45:17;;;;;;;1.00;0.65;;;14.30;94.40;;;;;;10161997;28;20027;-70
2022/09/27 12:50:36;;;;;;;1.80;0.70;;;14.30;94.50;;;;;;10164213;28;20934;-63
2022/09/27 12:55:43;;;;;;;;;;;14.30;94.60;;;;;;10158497;28;20074;-64
2022/09/27 13:01:05;;;;;;;2.92;0.47;;;14.30;94.60;;;;;;10159168;28;20150;-61
2022/09/27 13:06:38;;;;;;;0.32;0.20;;;14.30;94.60;;;;;;10154421;28;20551;-62
2022/09/27 13:11:48;;;;;;;1.08;0.40;;;14.30;94.60;;;;;;10112645;28;20459;-62
2022/09/27 13:16:50;;;;;;;1.13;0.10;;;14.20;94.70;;;;;;10156507;28;20484;-61
2022/09/27 13:21:50;;;;;;;0.43;0.22;;;14.20;94.80;;;;;;10141698;28;20169;-63
2022/09/27 13:26:52;;;;;;;0.77;0.20;;;14.20;94.80;;;;;;10163287;28;20733;-62
2022/09/27 13:31:53;;;;;;;0.93;0.40;;;14.20;94.90;;;;;;10161452;28;20472;-63
2022/09/27 13:36:54;;;;;;;0.30;0.20;;;14.20;94.90;;;;;;10157416;28;20040;-62
2022/09/27 13:42:13;;;;;;;2.17;0.35;;;14.20;94.80;;;;;;10157402;28;20457;-62
2022/09/27 13:47:25;;;;;;;0.55;0.25;;;14.20;94.80;;;;;;10157826;28;20520;-62
2022/09/27 13:52:36;;;;;;;0.43;0.20;;;14.20;94.80;;;;;;10154284;28;20042;-64
2022/09/27 13:57:40;;;;;;;1.30;0.22;;;14.20;94.70;;;;;;10155241;28;20113;-62
2022/09/27 14:03:04;;;;;;;0.85;0.85;;;14.20;94.70;;;;;;10154845;28;20115;-62
2022/09/27 14:08:13;;;;;;;0.30;0.20;;;14.20;94.70;;;;;;10159900;28;20041;-62
2022/09/27 14:13:21;;;;;;;0.60;0.30;;;14.20;94.80;;;;;;10156056;28;20150;-62
2022/09/27 14:18:22;;;;;;;0.95;0.40;;;14.20;94.80;;;;;;10157807;28;20031;-62
2022/09/27 14:23:26;;;;;;;0.75;0.20;;;14.20;94.80;;;;;;10158634;28;20063;-62
2022/09/27 14:28:29;;;;;;;0.55;0.20;;;14.20;94.80;;;;;;10132861;28;20035;-62
2022/09/27 14:33:33;;;;;;;0.35;0.20;;;14.10;94.80;;;;;;10154442;28;20043;-62
2022/09/27 14:38:34;;;;;;;0.68;0.20;;;14.20;94.80;;;;;;10158392;28;20143;-63
2022/09/27 14:43:40;;;;;;;1.02;0.60;;;14.10;95.10;;;;;;10154908;28;20476;-62
2022/09/27 14:48:42;;;;;;;1.00;0.30;;;14.00;94.80;;;;;;10152094;28;20118;-62
2022/09/27 14:53:47;;;;;;;1.20;0.40;;;14.10;94.80;;;;;;10153713;28;20551;-64
2022/09/27 14:59:01;;;;;;;1.10;0.40;;;14.10;94.80;;;;;;10155684;28;20185;-62
2022/09/27 15:04:13;;;;;;;0.90;0.35;;;14.10;94.80;;;;;;10147309;28;20962;-65
2022/09/27 15:09:15;;;;;;;1.35;0.40;;;14.10;94.80;;;;;;10153427;28;20933;-64
2022/09/27 15:14:21;;;;;;;0.40;0.30;;;14.00;94.80;;;;;;10152831;28;20457;-63
2022/09/27 15:19:27;;;;;;;0.55;0.30;;;14.00;94.80;;;;;;10153053;28;20322;-62
2022/09/27 15:24:42;;;;;;;1.83;0.40;;;14.00;94.80;;;;;;10158104;28;20073;-62
2022/09/27 15:29:51;;;;;;;2.33;0.30;;;14.00;94.80;;;;;;10155453;28;20142;-63
2022/09/27 15:34:54;;;;;;;1.45;0.22;;;14.00;94.80;;;;;;10152450;28;20395;-62
2022/09/27 15:40:04;;;;;;;1.23;0.30;;;14.00;94.80;;;;;;10151152;28;20114;-63
2022/09/27 15:45:35;;;;;;;0.70;0.30;;;14.00;94.80;;;;;;10149967;28;20077;-62
2022/09/27 15:50:36;;;;;;;0.95;0.40;;;14.00;94.70;;;;;;10153652;28;20287;-61
2022/09/27 15:55:48;;;;;;;1.10;0.35;;;14.00;94.80;;;;;;10139412;28;20263;-61
2022/09/27 16:00:53;;;;;;;1.13;0.40;;;14.00;94.80;;;;;;10154250;28;20106;-61
2022/09/27 16:05:59;;;;;;;0.73;0.30;;;14.00;94.80;;;;;;10157725;28;20325;-61
2022/09/27 16:11:02;;;;;;;1.35;0.45;;;13.90;94.70;;;;;;10162030;28;20109;-64
2022/09/27 16:16:02;;;;;;;0.90;0.40;;;13.90;94.70;;;;;;10159551;28;20712;-62
2022/09/27 16:21:03;;;;;;;2.35;0.50;;;13.90;94.70;;;;;;10157094;28;20048;-65
2022/09/27 16:26:05;;;;;;;1.05;0.45;;;13.90;94.80;;;;;;10154905;28;20094;-62
2022/09/27 16:31:06;;;;;;;1.13;0.73;;;13.90;94.70;;;;;;10142500;28;20409;-65
2022/09/27 16:36:14;;;;;;;2.80;0.60;;;13.90;94.70;;;;;;10157618;28;20047;-62
2022/09/27 16:41:16;;;;;;;2.08;0.68;;;13.90;94.70;;;;;;10160085;28;20504;-62
2022/09/27 16:46:18;;;;;;;2.05;0.95;;;13.90;94.70;;;;;;10161818;28;20019;-62
2022/09/27 16:56:39;;;;;;;1.42;0.70;;;13.80;94.70;;;;;;10160466;28;20055;-61
2022/09/27 17:01:40;;;;;;;2.88;0.85;;;13.80;94.70;;;;;;10158221;28;20031;-62
2022/09/27 17:06:41;;;;;;;1.75;0.70;;;13.80;94.70;;;;;;10160621;28;20125;-62
2022/09/27 17:11:42;;;;;;;3.83;0.63;;;13.80;94.70;;;;;;10156408;28;20495;-64
2022/09/27 17:16:44;;;;;;;1.02;0.60;;;13.70;94.70;;;;;;10155162;28;20050;-62
2022/09/27 17:21:45;;;;;;;1.90;0.93;;;13.70;94.70;;;;;;10162092;28;20130;-62
2022/09/27 17:26:46;;;;;;;1.50;0.50;;;13.70;95.00;;;;;;10160257;28;20027;-62
2022/09/27 17:31:46;;;;;;;1.30;0.70;;;13.70;94.70;;;;;;10154954;28;20211;-62
2022/09/27 17:36:48;;;;;;;1.60;0.82;;;13.70;94.80;;;;;;10166149;28;21090;-62
2022/09/27 17:41:49;;;;;;;1.63;0.65;;;13.60;94.70;;;;;;10151044;28;20031;-63
2022/09/27 17:50:23;;;;;;;1.17;0.63;;;13.60;94.70;;;;;;10148171;28;20030;-62
2022/09/27 17:52:10;;;;;;;0.93;0.60;;;13.60;94.70;;;;;;10201716;28;20043;-62
2022/09/27 17:57:11;;;;;;;1.20;0.63;;;13.60;94.70;;;;;;10231873;28;20047;-62
2022/09/27 18:02:12;;;;;;;1.98;0.73;;;13.60;94.70;;;;;;10231104;28;20039;-62
2022/09/27 18:07:12;;;;;;;1.20;0.70;;;13.60;94.70;;;;;;10234301;28;20034;-62
2022/09/27 18:12:14;;;;;;;1.50;0.95;;;13.60;94.70;;;;;;10233417;28;20058;-62
2022/09/27 18:17:15;;;;;;;1.90;0.60;;;13.60;94.70;;;;;;10234137;28;20055;-61
2022/09/27 18:22:16;;;;;;;1.38;0.70;;;13.50;94.70;;;;;;10235087;28;20665;-62
2022/09/27 18:27:18;;;;;;;1.00;0.60;;;13.50;94.70;;;;;;10234700;28;20031;-62
2022/09/27 18:32:19;;;;;;;0.82;0.50;;;13.50;94.70;;;;;;10231846;28;20046;-62
2022/09/27 18:37:20;;;;;;;0.57;0.57;;;13.50;94.70;;;;;;10231208;28;20054;-61
2022/09/27 18:42:21;;;;;;;1.17;0.50;;;13.50;94.90;;;;;;10232078;28;20114;-62
2022/09/27 18:47:22;;;;;;;3.40;0.50;;;13.40;94.60;;;;;;10236175;28;20024;-61
2022/09/27 18:52:23;;;;;;;0.70;0.50;;;13.50;94.70;;;;;;10231234;28;20117;-62
2022/09/27 18:57:24;;;;;;;0.70;0.60;;;13.50;94.70;;;;;;10233826;28;20110;-61
2022/09/27 19:02:25;;;;;;;0.85;0.40;;;13.40;94.60;;;;;;10243848;28;20049;-62
2022/09/27 19:07:25;;;;;;;0.52;0.45;;;13.40;94.60;;;;;;10227407;28;20025;-62
2022/09/27 19:12:26;;;;;;;1.45;0.60;;;13.40;94.60;;;;;;10233391;28;20397;-61
2022/09/27 19:17:27;;;;;;;2.47;0.80;;;13.40;94.60;;;;;;10236246;28;20047;-61
2022/09/27 19:22:28;;;;;;;1.60;1.02;;;13.40;94.60;;;;;;10235534;28;20055;-61
2022/09/27 19:27:30;;;;;;;0.60;0.57;;;13.40;94.60;;;;;;10246729;28;20114;-61
2022/09/27 19:32:31;;;;;;;1.30;0.68;;;13.40;94.60;;;;;;10240877;28;20209;-71
2022/09/27 19:37:32;;;;;;;1.30;0.70;;;13.40;94.60;;;;;;10243053;28;20031;-63
2022/09/27 19:42:32;;;;;;;1.50;0.80;;;13.40;94.60;;;;;;10248126;28;20439;-64
2022/09/27 19:47:33;;;;;;;1.95;0.77;;;13.40;94.70;;;;;;10256523;28;20027;-61
2022/09/27 19:52:34;;;;;;;1.95;0.80;;;13.40;94.90;;;;;;10246247;28;20515;-61
2022/09/27 19:57:35;;;;;;;1.58;1.00;;;13.30;94.60;;;;;;10252910;28;20043;-61
2022/09/27 20:02:36;;;;;;;1.23;0.70;;;13.30;94.70;;;;;;10242536;28;20019;-62
2022/09/27 20:07:36;;;;;;;1.75;0.88;;;13.30;94.60;;;;;;10238999;28;20122;-62
2022/09/27 20:12:37;;;;;;;1.15;0.80;;;13.30;94.60;;;;;;10253227;28;20105;-61
2022/09/27 20:17:38;;;;;;;1.20;0.95;;;13.30;94.60;;;;;;10257258;28;20027;-61
2022/09/27 20:22:39;;;;;;;2.38;1.48;;;13.30;94.60;;;;;;10251139;28;20058;-62
2022/09/27 20:27:40;;;;;;;1.20;0.90;;;13.30;94.70;;;;;;10250507;28;20511;-62
2022/09/27 20:33:39;;;;;;;1.55;1.08;;;13.30;94.70;;;;;;10245987;28;20343;-62
2022/09/27 20:38:01;;;;;;;2.75;1.00;;;13.30;94.70;;;;;;10250889;28;20081;-66
2022/09/27 20:43:02;;;;;;;1.30;0.90;;;13.30;94.70;;;;;;10259445;28;20117;-62
2022/09/27 20:48:03;;;;;;;2.35;1.00;;;13.30;94.70;;;;;;10249411;28;20069;-61
2022/09/27 20:53:04;;;;;;;2.10;1.23;;;13.30;94.70;;;;;;10247027;28;20039;-61
2022/09/27 20:58:04;;;;;;;1.30;1.00;;;13.30;94.70;;;;;;10247209;28;20055;-61
2022/09/27 21:03:05;;;;;;;1.45;0.90;;;13.20;94.70;;;;;;10250650;28;20034;-63
2022/09/27 21:08:06;;;;;;;1.45;1.15;;;13.30;94.70;;;;;;10250224;28;20126;-62
2022/09/27 21:13:06;;;;;;;2.40;1.27;;;13.20;94.70;;;;;;10256252;28;20043;-62
2022/09/27 21:18:07;;;;;;;2.17;1.10;;;13.20;94.70;;;;;;10243318;28;20122;-61
2022/09/27 21:23:08;;;;;;;2.53;1.50;;;13.20;94.70;;;;;;10234470;28;20039;-61
2022/09/27 21:28:09;;;;;;;2.75;1.60;;;13.20;94.70;;;;;;10235247;28;20111;-61
2022/09/27 21:33:10;;;;;;;1.88;1.20;;;13.20;94.70;;;;;;10241661;28;20047;-62
2022/09/27 21:38:11;;;;;;;2.97;1.30;;;13.20;94.70;;;;;;10248446;28;20122;-61
2022/09/27 21:43:11;;;;;;;2.08;1.40;;;13.20;94.70;;;;;;10249325;28;20061;-61
2022/09/27 21:48:12;;;;;;;2.72;1.20;;;13.20;94.70;;;;;;10251372;28;20393;-61
2022/09/27 21:53:13;;;;;;;2.03;1.15;;;13.20;94.70;;;;;;10244008;28;20035;-61
2022/09/27 21:58:13;;;;;;;1.67;1.33;;;13.20;94.70;;;;;;10242987;28;20090;-62
2022/09/27 22:03:14;;;;;;;1.52;1.27;;;13.20;94.70;;;;;;10242391;28;20039;-62
2022/09/27 22:08:16;;;;;;;2.40;1.40;;;13.10;94.80;;;;;;10248636;28;20031;-62
2022/09/27 22:13:18;;;;;;;1.55;1.17;;;13.10;94.70;;;;;;10254689;28;20031;-62
2022/09/27 22:18:19;;;;;;;1.73;1.30;;;13.10;94.70;;;;;;10251732;28;20023;-62
2022/09/27 22:23:19;;;;;;;3.05;1.17;;;13.10;94.70;;;;;;10246536;28;20051;-61
2022/09/27 22:28:20;;;;;;;1.75;1.13;;;13.10;94.70;;;;;;10242120;28;20027;-61
2022/09/27 22:33:21;;;;;;;1.75;1.27;;;13.10;94.70;;;;;;10241415;28;20042;-61
2022/09/27 22:38:22;;;;;;;2.08;1.33;;;13.10;94.70;;;;;;10247491;28;20024;-62
2022/09/27 22:43:23;;;;;;;1.92;1.38;;;13.10;94.70;;;;;;10250887;28;20031;-66
2022/09/27 22:48:24;;;;;;;2.15;1.27;;;13.10;94.70;;;;;;10244728;28;20049;-62
2022/09/27 22:53:26;;;;;;;2.08;1.40;;;13.10;94.70;;;;;;10234781;28;20058;-61
2022/09/27 22:58:28;;;;;;;1.95;1.10;;;13.10;94.70;;;;;;10241927;28;20035;-62
2022/09/27 23:03:28;;;;;;;1.48;1.38;;;13.10;94.70;;;;;;10244365;28;20101;-62
2022/09/27 23:08:34;;;;;;;1.92;1.25;;;13.10;94.70;;;;;;10246948;28;20024;-62
2022/09/27 23:13:36;;;;;;;1.52;1.20;;;13.00;94.70;;;;;;10242064;28;20067;-62
2022/09/27 23:18:37;;;;;;;2.35;1.20;;;13.10;94.80;;;;;;10251148;28;20019;-62
2022/09/27 23:23:40;;;;;;;1.58;1.30;;;13.00;94.70;;;;;;10238959;28;20572;-62
2022/09/27 23:28:41;;;;;;;2.28;1.10;;;13.00;94.70;;;;;;10251809;28;20035;-61
2022/09/27 23:33:46;;;;;;;2.20;1.50;;;13.00;94.70;;;;;;10247493;28;20584;-62
2022/09/27 23:38:47;;;;;;;2.78;1.73;;;13.00;94.70;;;;;;10244544;28;20066;-61
2022/09/27 23:43:48;;;;;;;2.20;1.50;;;13.00;94.70;;;;;;10246257;28;20117;-69
2022/09/27 23:48:49;;;;;;;3.53;1.40;;;13.00;94.70;;;;;;10251609;28;20122;-62
2022/09/27 23:53:50;;;;;;;1.85;1.42;;;13.00;94.70;;;;;;10227247;28;20052;-62
2022/09/27 23:58:50;;;;;;;2.95;1.65;;;12.90;94.70;;;;;;10242901;28;20023;-61
